Kitty — ZCXB — position and weather

sailwx.info

Track history (hours):
 
Tides and Currents Weather Stations Pressure Air Temp Water Temp Dewpoint Dewpoint Depression Visibility Wind Speed Wind Dir Waves Ship Positions

Kitty

Last reported at 2014-Aug-20 14:33 UTC. Time now 2014-Aug-20 14:44 UTC.
Position N 43°31' E 007°04'.

Length 38 m; draft 2.7 m.

Type: Pleasure craft. MMSI: 319423000.

Date/timePositionNaut miles runAvg speedWind from/ knotsBaromVisibWave heightAir tempDewpointWater temp
2014-Aug-20 14:33N 43°31' E 007°04'0 0.0
2014-Aug-20 13:33N 43°31' E 007°04'0 0.0
2014-Aug-20 12:27N 43°31' E 007°04'0 0.0
2014-Aug-20 11:21N 43°31' E 007°04'0 0.0
2014-Aug-20 10:27N 43°31' E 007°04'0 0.0
2014-Aug-20 09:33N 43°31' E 007°04'0 0.0
2014-Aug-20 08:21N 43°31' E 007°04'0 0.0
2014-Aug-20 07:33N 43°31' E 007°04'1 0.7
2014-Aug-20 06:31N 43°32' E 007°03'0 0.0
2014-Aug-20 05:25N 43°32' E 007°03'0 0.0
2014-Aug-20 04:31N 43°32' E 007°03'0 0.0
2014-Aug-20 03:31N 43°32' E 007°03'0 0.0
2014-Aug-20 02:31N 43°32' E 007°03'0 0.0
2014-Aug-20 01:31N 43°32' E 007°03'0 0.0
2014-Aug-20 00:31N 43°32' E 007°03'0 0.0
2014-Aug-19 23:28N 43°32' E 007°03'0 0.0
2014-Aug-19 22:31N 43°32' E 007°03'0 0.0
2014-Aug-19 21:31N 43°32' E 007°03'0 0.0
2014-Aug-19 20:31N 43°32' E 007°03'0 0.0
2014-Aug-19 19:31N 43°32' E 007°03'0 0.0
2014-Aug-19 18:25N 43°32' E 007°03'0 0.0
2014-Aug-19 17:25N 43°32' E 007°03'0 0.1
2014-Aug-19 16:28N 43°32' E 007°03'0 0.0
2014-Aug-19 15:25N 43°32' E 007°03'0 0.0
2014-Aug-19 14:28N 43°32' E 007°03'0 0.0
2014-Aug-19 13:31N 43°32' E 007°03'0 0.0
2014-Aug-19 12:31N 43°32' E 007°03'0 0.0
2014-Aug-19 11:25N 43°32' E 007°03'0 0.0
2014-Aug-19 10:28N 43°32' E 007°03'0 0.0
2014-Aug-19 09:31N 43°32' E 007°03'0 0.0
2014-Aug-19 08:28N 43°32' E 007°03'0 0.0
2014-Aug-19 07:33N 43°32' E 007°03'2 1.8
2014-Aug-19 06:33N 43°33' E 007°04'1 0.8
2014-Aug-19 05:27N 43°34' E 007°05'0 0.0
2014-Aug-19 04:33N 43°34' E 007°05'0 0.0
2014-Aug-19 03:33N 43°34' E 007°05'0 0.0
2014-Aug-19 02:27N 43°34' E 007°05'0 0.0
2014-Aug-19 01:33N 43°34' E 007°05'0 0.0
2014-Aug-19 00:33N 43°34' E 007°05'0 0.0
2014-Aug-18 23:33N 43°34' E 007°05'0 0.0
2014-Aug-18 22:27N 43°34' E 007°05'0 0.0
2014-Aug-18 21:33N 43°34' E 007°05'0 0.0
2014-Aug-18 20:33N 43°34' E 007°05'0 0.0
2014-Aug-18 19:33N 43°34' E 007°05'0 0.0
2014-Aug-18 18:21N 43°34' E 007°05'0 0.0
2014-Aug-18 17:21N 43°34' E 007°05'0 0.0
2014-Aug-18 16:27N 43°34' E 007°05'0 0.0
2014-Aug-18 15:27N 43°34' E 007°05'0 0.0
2014-Aug-18 14:33N 43°34' E 007°05'0 0.0
2014-Aug-18 13:21N 43°34' E 007°05'0 0.0
2014-Aug-18 12:33N 43°34' E 007°05'0 0.0
2014-Aug-18 11:33N 43°34' E 007°05'0 0.0
2014-Aug-18 10:33N 43°34' E 007°05'0 0.0
2014-Aug-18 09:27N 43°34' E 007°05'0 0.2
2014-Aug-18 08:33N 43°34' E 007°05'2 2.3
2014-Aug-18 07:29N 43°31' E 007°04'0 0.0
2014-Aug-18 06:29N 43°31' E 007°04'0 0.0
2014-Aug-18 05:29N 43°31' E 007°04'0 0.0
2014-Aug-18 04:29N 43°31' E 007°04'0 0.0
2014-Aug-18 03:29N 43°31' E 007°04'0 0.0
2014-Aug-18 02:29N 43°31' E 007°04'0 0.0
2014-Aug-18 01:29N 43°31' E 007°04'0 0.0
2014-Aug-18 00:29N 43°31' E 007°04'0 0.0
2014-Aug-17 18:23N 43°31' E 007°04'0 0.0
2014-Aug-17 17:29N 43°31' E 007°04'0 0.0
2014-Aug-17 16:29N 43°31' E 007°04'0 0.0
2014-Aug-17 15:29N 43°31' E 007°04'0 0.0
2014-Aug-17 14:29N 43°31' E 007°04'0 0.0
2014-Aug-17 13:29N 43°31' E 007°04'0 0.0
2014-Aug-17 12:32N 43°31' E 007°04'0 0.0
2014-Aug-17 11:29N 43°31' E 007°04'0 0.0
2014-Aug-17 10:29N 43°31' E 007°04'0 0.0
2014-Aug-17 09:29N 43°31' E 007°04'2 2.0
2014-Aug-17 08:33N 43°30' E 007°04'5 2.6
2014-Aug-17 06:31N 43°31' E 006°57'0 0.0
2014-Aug-17 04:07N 43°31' E 006°57'0 0.0
2014-Aug-17 03:07N 43°31' E 006°57'0 0.0
2014-Aug-17 02:07N 43°31' E 006°57'0 0.0
2014-Aug-17 01:13N 43°31' E 006°57'0 0.0
2014-Aug-17 00:19N 43°31' E 006°57'0 0.0
2014-Aug-16 23:19N 43°31' E 006°57'0 0.0
2014-Aug-16 22:31N 43°31' E 006°57'0 0.0
2014-Aug-16 21:19N 43°31' E 006°57'0 0.0
2014-Aug-16 20:31N 43°31' E 006°57'0 0.0
2014-Aug-16 19:07N 43°31' E 006°57'0 0.0
2014-Aug-16 18:25N 43°31' E 006°57'0 0.0
2014-Aug-16 17:13N 43°31' E 006°57'0 0.0
2014-Aug-16 16:25N 43°31' E 006°57'0 0.0
2014-Aug-16 15:31N 43°31' E 006°57'0 0.0
2014-Aug-16 14:25N 43°31' E 006°57'0 0.0
2014-Aug-16 13:31N 43°31' E 006°57'0 0.0
2014-Aug-16 12:31N 43°31' E 006°57'0 0.0
2014-Aug-16 11:31N 43°31' E 006°57'0 0.0
2014-Aug-16 10:13N 43°31' E 006°57'1 0.8
2014-Aug-16 09:25N 43°31' E 006°57'0 0.0
2014-Aug-16 08:13N 43°31' E 006°57'0 0.0
2014-Aug-16 07:28N 43°31' E 006°57'0 0.2
2014-Aug-16 06:28N 43°31' E 006°57'0 0.2
2014-Aug-16 05:07N 43°31' E 006°57'0 0.0
2014-Aug-16 04:31N 43°31' E 006°57'0 0.0
2014-Aug-16 03:31N 43°31' E 006°57'0 0.0
2014-Aug-16 02:07N 43°31' E 006°57'0 0.0
2014-Aug-16 01:31N 43°31' E 006°57'0 0.0
2014-Aug-16 00:31N 43°31' E 006°57'0 0.0
2014-Aug-15 23:31N 43°31' E 006°57'0 0.0
2014-Aug-15 22:28N 43°31' E 006°57'0 0.0
2014-Aug-15 21:31N 43°31' E 006°57'0 0.0
2014-Aug-15 20:25N 43°31' E 006°57'0 0.0
2014-Aug-15 19:22N 43°31' E 006°57'0 0.0
2014-Aug-15 18:31N 43°31' E 006°57'0 0.0
2014-Aug-15 17:33N 43°31' E 006°57'0 0.0
2014-Aug-15 16:34N 43°31' E 006°57'0 0.0
2014-Aug-15 15:33N 43°31' E 006°57'0 0.0
2014-Aug-15 14:33N 43°31' E 006°57'0 0.0
2014-Aug-15 13:33N 43°31' E 006°57'0 0.0
2014-Aug-15 12:33N 43°31' E 006°57'2 2.4
2014-Aug-15 11:33N 43°30' E 007°00'5 4.8
2014-Aug-15 10:33N 43°32' E 007°06'2 1.5
2014-Aug-15 09:29N 43°34' E 007°05'0 0.0
2014-Aug-15 08:29N 43°34' E 007°05'0 0.0
2014-Aug-15 07:29N 43°34' E 007°05'0 0.0
2014-Aug-15 06:29N 43°34' E 007°05'0 0.0
2014-Aug-15 05:29N 43°34' E 007°05'0 0.0
2014-Aug-15 04:29N 43°34' E 007°05'0 0.0
2014-Aug-15 03:29N 43°34' E 007°05'0 0.0
2014-Aug-15 02:29N 43°34' E 007°05'0 0.0
2014-Aug-15 01:29N 43°34' E 007°05'0 0.0
2014-Aug-15 00:29N 43°34' E 007°05'0 0.0
2014-Aug-14 23:29N 43°34' E 007°05'0 0.0
2014-Aug-14 22:23N 43°34' E 007°05'0 0.0
2014-Aug-14 21:17N 43°34' E 007°05'0 0.0
2014-Aug-14 20:23N 43°34' E 007°05'0 0.0
2014-Aug-14 19:23N 43°34' E 007°05'0 0.0
2014-Aug-14 18:29N 43°34' E 007°05'0 0.0
2014-Aug-14 17:29N 43°34' E 007°05'0 0.0
2014-Aug-14 16:29N 43°34' E 007°05'0 0.0
2014-Aug-14 15:29N 43°34' E 007°05'0 0.0
2014-Aug-14 14:29N 43°34' E 007°05'0 0.0
2014-Aug-14 13:29N 43°34' E 007°05'0 0.0
2014-Aug-14 12:29N 43°34' E 007°05'0 0.0
2014-Aug-14 11:17N 43°34' E 007°05'0 0.0
2014-Aug-14 10:29N 43°34' E 007°05'0 0.0
2014-Aug-14 09:29N 43°34' E 007°05'0 0.0
2014-Aug-14 08:05N 43°34' E 007°05'0 0.0
2014-Aug-14 07:29N 43°34' E 007°05'0 0.0
2014-Aug-14 06:23N 43°34' E 007°05'0 0.0
2014-Aug-14 05:29N 43°34' E 007°05'0 0.0
2014-Aug-14 04:23N 43°34' E 007°05'0 0.0
2014-Aug-14 03:23N 43°34' E 007°05'0 0.0
2014-Aug-14 02:23N 43°34' E 007°05'0 0.0
2014-Aug-14 01:29N 43°34' E 007°05'0 0.0
2014-Aug-14 00:29N 43°34' E 007°05'0 0.0
2014-Aug-13 23:29N 43°34' E 007°05'0 0.0
2014-Aug-13 22:29N 43°34' E 007°05'0 0.0
2014-Aug-13 21:29N 43°34' E 007°05'0 0.0
2014-Aug-13 20:23N 43°34' E 007°05'0 0.0
2014-Aug-13 19:29N 43°34' E 007°05'0 0.0
2014-Aug-13 18:29N 43°34' E 007°05'0 0.3
2014-Aug-13 17:33N 43°34' E 007°05'2 0.4
2014-Aug-13 12:27N 43°32' E 007°04'2 2.6
2014-Aug-13 11:33N 43°34' E 007°05'0 0.0
2014-Aug-13 10:33N 43°34' E 007°05'0 0.0
2014-Aug-13 09:33N 43°34' E 007°05'0 0.0
2014-Aug-13 08:27N 43°34' E 007°05'0 0.0
2014-Aug-13 07:33N 43°34' E 007°05'0 0.0
2014-Aug-13 06:33N 43°34' E 007°05'0 0.0
2014-Aug-13 05:33N 43°34' E 007°05'0 0.0
2014-Aug-13 04:21N 43°34' E 007°05'0 0.0
2014-Aug-13 03:33N 43°34' E 007°05'0 0.0
2014-Aug-13 01:33N 43°34' E 007°05'0 0.0
2014-Aug-13 00:33N 43°34' E 007°05'0 0.0
2014-Aug-12 23:33N 43°34' E 007°05'0 0.0
2014-Aug-12 22:33N 43°34' E 007°05'0 0.0
2014-Aug-12 21:33N 43°34' E 007°05'0 0.0
2014-Aug-12 20:33N 43°34' E 007°05'0 0.0
2014-Aug-12 19:33N 43°34' E 007°05'0 0.0
2014-Aug-12 18:33N 43°34' E 007°05'0 0.0
2014-Aug-12 17:33N 43°34' E 007°05'0 0.0
2014-Aug-12 16:33N 43°34' E 007°05'2 2.2
2014-Aug-12 15:32N 43°32' E 007°03'0 0.3
2014-Aug-12 14:13N 43°32' E 007°03'0 0.0
2014-Aug-12 12:13N 43°32' E 007°03'0 0.0
2014-Aug-12 10:25N 43°32' E 007°03'0 0.0
2014-Aug-12 09:25N 43°32' E 007°03'0 0.0
2014-Aug-12 08:19N 43°32' E 007°03'0 0.0
2014-Aug-12 06:13N 43°32' E 007°03'0 0.0
2014-Aug-12 03:07N 43°32' E 007°03'0 0.0
2014-Aug-12 00:25N 43°32' E 007°03'0 0.0
2014-Aug-11 21:25N 43°32' E 007°03'0 0.0
2014-Aug-11 20:25N 43°32' E 007°03'0 0.0
2014-Aug-11 19:25N 43°32' E 007°03'0 0.0
2014-Aug-11 18:31N 43°32' E 007°03'0 0.0
2014-Aug-11 17:31N 43°32' E 007°03'0 0.0
2014-Aug-11 16:31N 43°32' E 007°03'0 0.0
2014-Aug-11 15:25N 43°32' E 007°03'0 0.0
2014-Aug-11 14:19N 43°32' E 007°03'0 0.0
2014-Aug-11 13:25N 43°32' E 007°03'0 0.0
2014-Aug-11 11:32N 43°32' E 007°03'0 0.0
2014-Aug-11 10:31N 43°32' E 007°03'0 0.0
2014-Aug-11 09:33N 43°32' E 007°03'0 0.0
2014-Aug-11 08:31N 43°31' E 007°03'0 0.0
2014-Aug-11 07:33N 43°31' E 007°03'0 0.0
2014-Aug-11 06:33N 43°31' E 007°03'1 1.5
2014-Aug-11 05:33N 43°33' E 007°05'1 1.4
2014-Aug-11 04:31N 43°33' E 007°07'0 0.0
2014-Aug-11 03:31N 43°33' E 007°07'0 0.0
2014-Aug-11 02:31N 43°33' E 007°07'0 0.0
2014-Aug-11 01:31N 43°33' E 007°07'0 0.0
2014-Aug-11 00:31N 43°33' E 007°07'0 0.0
2014-Aug-10 23:25N 43°33' E 007°07'0 0.0
2014-Aug-10 22:31N 43°33' E 007°07'0 0.0
2014-Aug-10 21:31N 43°33' E 007°07'0 0.0
2014-Aug-10 20:31N 43°33' E 007°07'0 0.0
2014-Aug-10 19:31N 43°33' E 007°07'0 0.0
2014-Aug-10 18:31N 43°33' E 007°07'0 0.0
2014-Aug-10 17:31N 43°33' E 007°07'0 0.0
2014-Aug-10 16:31N 43°33' E 007°07'0 0.0
2014-Aug-10 15:31N 43°33' E 007°07'  
Track history (hours):
 
Tides and Currents Weather Stations Pressure Air Temp Water Temp Dewpoint Dewpoint Depression Visibility Wind Speed Wind Dir Waves Ship Positions

Kitty

Last reported at 2014-Aug-20 14:33 UTC. Time now 2014-Aug-20 14:44 UTC.
Position N 43°31' E 007°04'.

Length 38 m; draft 2.7 m.

Type: Pleasure craft. MMSI: 319423000.

Date/timePositionNaut miles runAvg speedWind from/ knotsBaromVisibWave heightAir tempDewpointWater temp
2014-Aug-20 14:33N 43°31' E 007°04'0 0.0
2014-Aug-20 13:33N 43°31' E 007°04'0 0.0
2014-Aug-20 12:27N 43°31' E 007°04'0 0.0
2014-Aug-20 11:21N 43°31' E 007°04'0 0.0
2014-Aug-20 10:27N 43°31' E 007°04'0 0.0
2014-Aug-20 09:33N 43°31' E 007°04'0 0.0
2014-Aug-20 08:21N 43°31' E 007°04'0 0.0
2014-Aug-20 07:33N 43°31' E 007°04'1 0.7
2014-Aug-20 06:31N 43°32' E 007°03'0 0.0
2014-Aug-20 05:25N 43°32' E 007°03'0 0.0
2014-Aug-20 04:31N 43°32' E 007°03'0 0.0
2014-Aug-20 03:31N 43°32' E 007°03'0 0.0
2014-Aug-20 02:31N 43°32' E 007°03'0 0.0
2014-Aug-20 01:31N 43°32' E 007°03'0 0.0
2014-Aug-20 00:31N 43°32' E 007°03'0 0.0
2014-Aug-19 23:28N 43°32' E 007°03'0 0.0
2014-Aug-19 22:31N 43°32' E 007°03'0 0.0
2014-Aug-19 21:31N 43°32' E 007°03'0 0.0
2014-Aug-19 20:31N 43°32' E 007°03'0 0.0
2014-Aug-19 19:31N 43°32' E 007°03'0 0.0
2014-Aug-19 18:25N 43°32' E 007°03'0 0.0
2014-Aug-19 17:25N 43°32' E 007°03'0 0.1
2014-Aug-19 16:28N 43°32' E 007°03'0 0.0
2014-Aug-19 15:25N 43°32' E 007°03'0 0.0
2014-Aug-19 14:28N 43°32' E 007°03'0 0.0
2014-Aug-19 13:31N 43°32' E 007°03'0 0.0
2014-Aug-19 12:31N 43°32' E 007°03'0 0.0
2014-Aug-19 11:25N 43°32' E 007°03'0 0.0
2014-Aug-19 10:28N 43°32' E 007°03'0 0.0
2014-Aug-19 09:31N 43°32' E 007°03'0 0.0
2014-Aug-19 08:28N 43°32' E 007°03'0 0.0
2014-Aug-19 07:33N 43°32' E 007°03'2 1.8
2014-Aug-19 06:33N 43°33' E 007°04'1 0.8
2014-Aug-19 05:27N 43°34' E 007°05'0 0.0
2014-Aug-19 04:33N 43°34' E 007°05'0 0.0
2014-Aug-19 03:33N 43°34' E 007°05'0 0.0
2014-Aug-19 02:27N 43°34' E 007°05'0 0.0
2014-Aug-19 01:33N 43°34' E 007°05'0 0.0
2014-Aug-19 00:33N 43°34' E 007°05'0 0.0
2014-Aug-18 23:33N 43°34' E 007°05'0 0.0
2014-Aug-18 22:27N 43°34' E 007°05'0 0.0
2014-Aug-18 21:33N 43°34' E 007°05'0 0.0
2014-Aug-18 20:33N 43°34' E 007°05'0 0.0
2014-Aug-18 19:33N 43°34' E 007°05'0 0.0
2014-Aug-18 18:21N 43°34' E 007°05'0 0.0
2014-Aug-18 17:21N 43°34' E 007°05'0 0.0
2014-Aug-18 16:27N 43°34' E 007°05'0 0.0
2014-Aug-18 15:27N 43°34' E 007°05'0 0.0
2014-Aug-18 14:33N 43°34' E 007°05'0 0.0
2014-Aug-18 13:21N 43°34' E 007°05'0 0.0
2014-Aug-18 12:33N 43°34' E 007°05'0 0.0
2014-Aug-18 11:33N 43°34' E 007°05'0 0.0
2014-Aug-18 10:33N 43°34' E 007°05'0 0.0
2014-Aug-18 09:27N 43°34' E 007°05'0 0.2
2014-Aug-18 08:33N 43°34' E 007°05'2 2.3
2014-Aug-18 07:29N 43°31' E 007°04'0 0.0
2014-Aug-18 06:29N 43°31' E 007°04'0 0.0
2014-Aug-18 05:29N 43°31' E 007°04'0 0.0
2014-Aug-18 04:29N 43°31' E 007°04'0 0.0
2014-Aug-18 03:29N 43°31' E 007°04'0 0.0
2014-Aug-18 02:29N 43°31' E 007°04'0 0.0
2014-Aug-18 01:29N 43°31' E 007°04'0 0.0
2014-Aug-18 00:29N 43°31' E 007°04'0 0.0
2014-Aug-17 18:23N 43°31' E 007°04'0 0.0
2014-Aug-17 17:29N 43°31' E 007°04'0 0.0
2014-Aug-17 16:29N 43°31' E 007°04'0 0.0
2014-Aug-17 15:29N 43°31' E 007°04'0 0.0
2014-Aug-17 14:29N 43°31' E 007°04'0 0.0
2014-Aug-17 13:29N 43°31' E 007°04'0 0.0
2014-Aug-17 12:32N 43°31' E 007°04'0 0.0
2014-Aug-17 11:29N 43°31' E 007°04'0 0.0
2014-Aug-17 10:29N 43°31' E 007°04'0 0.0
2014-Aug-17 09:29N 43°31' E 007°04'2 2.0
2014-Aug-17 08:33N 43°30' E 007°04'5 2.6
2014-Aug-17 06:31N 43°31' E 006°57'0 0.0
2014-Aug-17 04:07N 43°31' E 006°57'0 0.0
2014-Aug-17 03:07N 43°31' E 006°57'0 0.0
2014-Aug-17 02:07N 43°31' E 006°57'0 0.0
2014-Aug-17 01:13N 43°31' E 006°57'0 0.0
2014-Aug-17 00:19N 43°31' E 006°57'0 0.0
2014-Aug-16 23:19N 43°31' E 006°57'0 0.0
2014-Aug-16 22:31N 43°31' E 006°57'0 0.0
2014-Aug-16 21:19N 43°31' E 006°57'0 0.0
2014-Aug-16 20:31N 43°31' E 006°57'0 0.0
2014-Aug-16 19:07N 43°31' E 006°57'0 0.0
2014-Aug-16 18:25N 43°31' E 006°57'0 0.0
2014-Aug-16 17:13N 43°31' E 006°57'0 0.0
2014-Aug-16 16:25N 43°31' E 006°57'0 0.0
2014-Aug-16 15:31N 43°31' E 006°57'0 0.0
2014-Aug-16 14:25N 43°31' E 006°57'0 0.0
2014-Aug-16 13:31N 43°31' E 006°57'0 0.0
2014-Aug-16 12:31N 43°31' E 006°57'0 0.0
2014-Aug-16 11:31N 43°31' E 006°57'0 0.0
2014-Aug-16 10:13N 43°31' E 006°57'1 0.8
2014-Aug-16 09:25N 43°31' E 006°57'0 0.0
2014-Aug-16 08:13N 43°31' E 006°57'0 0.0
2014-Aug-16 07:28N 43°31' E 006°57'0 0.2
2014-Aug-16 06:28N 43°31' E 006°57'0 0.2
2014-Aug-16 05:07N 43°31' E 006°57'0 0.0
2014-Aug-16 04:31N 43°31' E 006°57'0 0.0
2014-Aug-16 03:31N 43°31' E 006°57'0 0.0
2014-Aug-16 02:07N 43°31' E 006°57'0 0.0
2014-Aug-16 01:31N 43°31' E 006°57'0 0.0
2014-Aug-16 00:31N 43°31' E 006°57'0 0.0
2014-Aug-15 23:31N 43°31' E 006°57'0 0.0
2014-Aug-15 22:28N 43°31' E 006°57'0 0.0
2014-Aug-15 21:31N 43°31' E 006°57'0 0.0
2014-Aug-15 20:25N 43°31' E 006°57'0 0.0
2014-Aug-15 19:22N 43°31' E 006°57'0 0.0
2014-Aug-15 18:31N 43°31' E 006°57'0 0.0
2014-Aug-15 17:33N 43°31' E 006°57'0 0.0
2014-Aug-15 16:34N 43°31' E 006°57'0 0.0
2014-Aug-15 15:33N 43°31' E 006°57'0 0.0
2014-Aug-15 14:33N 43°31' E 006°57'0 0.0
2014-Aug-15 13:33N 43°31' E 006°57'0 0.0
2014-Aug-15 12:33N 43°31' E 006°57'2 2.4
2014-Aug-15 11:33N 43°30' E 007°00'5 4.8
2014-Aug-15 10:33N 43°32' E 007°06'2 1.5
2014-Aug-15 09:29N 43°34' E 007°05'0 0.0
2014-Aug-15 08:29N 43°34' E 007°05'0 0.0
2014-Aug-15 07:29N 43°34' E 007°05'0 0.0
2014-Aug-15 06:29N 43°34' E 007°05'0 0.0
2014-Aug-15 05:29N 43°34' E 007°05'0 0.0
2014-Aug-15 04:29N 43°34' E 007°05'0 0.0
2014-Aug-15 03:29N 43°34' E 007°05'0 0.0
2014-Aug-15 02:29N 43°34' E 007°05'0 0.0
2014-Aug-15 01:29N 43°34' E 007°05'0 0.0
2014-Aug-15 00:29N 43°34' E 007°05'0 0.0
2014-Aug-14 23:29N 43°34' E 007°05'0 0.0
2014-Aug-14 22:23N 43°34' E 007°05'0 0.0
2014-Aug-14 21:17N 43°34' E 007°05'0 0.0
2014-Aug-14 20:23N 43°34' E 007°05'0 0.0
2014-Aug-14 19:23N 43°34' E 007°05'0 0.0
2014-Aug-14 18:29N 43°34' E 007°05'0 0.0
2014-Aug-14 17:29N 43°34' E 007°05'0 0.0
2014-Aug-14 16:29N 43°34' E 007°05'0 0.0
2014-Aug-14 15:29N 43°34' E 007°05'0 0.0
2014-Aug-14 14:29N 43°34' E 007°05'0 0.0
2014-Aug-14 13:29N 43°34' E 007°05'0 0.0
2014-Aug-14 12:29N 43°34' E 007°05'0 0.0
2014-Aug-14 11:17N 43°34' E 007°05'0 0.0
2014-Aug-14 10:29N 43°34' E 007°05'0 0.0
2014-Aug-14 09:29N 43°34' E 007°05'0 0.0
2014-Aug-14 08:05N 43°34' E 007°05'0 0.0
2014-Aug-14 07:29N 43°34' E 007°05'0 0.0
2014-Aug-14 06:23N 43°34' E 007°05'0 0.0
2014-Aug-14 05:29N 43°34' E 007°05'0 0.0
2014-Aug-14 04:23N 43°34' E 007°05'0 0.0
2014-Aug-14 03:23N 43°34' E 007°05'0 0.0
2014-Aug-14 02:23N 43°34' E 007°05'0 0.0
2014-Aug-14 01:29N 43°34' E 007°05'0 0.0
2014-Aug-14 00:29N 43°34' E 007°05'0 0.0
2014-Aug-13 23:29N 43°34' E 007°05'0 0.0
2014-Aug-13 22:29N 43°34' E 007°05'0 0.0
2014-Aug-13 21:29N 43°34' E 007°05'0 0.0
2014-Aug-13 20:23N 43°34' E 007°05'0 0.0
2014-Aug-13 19:29N 43°34' E 007°05'0 0.0
2014-Aug-13 18:29N 43°34' E 007°05'0 0.3
2014-Aug-13 17:33N 43°34' E 007°05'2 0.4
2014-Aug-13 12:27N 43°32' E 007°04'2 2.6
2014-Aug-13 11:33N 43°34' E 007°05'0 0.0
2014-Aug-13 10:33N 43°34' E 007°05'0 0.0
2014-Aug-13 09:33N 43°34' E 007°05'0 0.0
2014-Aug-13 08:27N 43°34' E 007°05'0 0.0
2014-Aug-13 07:33N 43°34' E 007°05'0 0.0
2014-Aug-13 06:33N 43°34' E 007°05'0 0.0
2014-Aug-13 05:33N 43°34' E 007°05'0 0.0
2014-Aug-13 04:21N 43°34' E 007°05'0 0.0
2014-Aug-13 03:33N 43°34' E 007°05'0 0.0
2014-Aug-13 01:33N 43°34' E 007°05'0 0.0
2014-Aug-13 00:33N 43°34' E 007°05'0 0.0
2014-Aug-12 23:33N 43°34' E 007°05'0 0.0
2014-Aug-12 22:33N 43°34' E 007°05'0 0.0
2014-Aug-12 21:33N 43°34' E 007°05'0 0.0
2014-Aug-12 20:33N 43°34' E 007°05'0 0.0
2014-Aug-12 19:33N 43°34' E 007°05'0 0.0
2014-Aug-12 18:33N 43°34' E 007°05'0 0.0
2014-Aug-12 17:33N 43°34' E 007°05'0 0.0
2014-Aug-12 16:33N 43°34' E 007°05'2 2.2
2014-Aug-12 15:32N 43°32' E 007°03'0 0.3
2014-Aug-12 14:13N 43°32' E 007°03'0 0.0
2014-Aug-12 12:13N 43°32' E 007°03'0 0.0
2014-Aug-12 10:25N 43°32' E 007°03'0 0.0
2014-Aug-12 09:25N 43°32' E 007°03'0 0.0
2014-Aug-12 08:19N 43°32' E 007°03'0 0.0
2014-Aug-12 06:13N 43°32' E 007°03'0 0.0
2014-Aug-12 03:07N 43°32' E 007°03'0 0.0
2014-Aug-12 00:25N 43°32' E 007°03'0 0.0
2014-Aug-11 21:25N 43°32' E 007°03'0 0.0
2014-Aug-11 20:25N 43°32' E 007°03'0 0.0
2014-Aug-11 19:25N 43°32' E 007°03'0 0.0
2014-Aug-11 18:31N 43°32' E 007°03'0 0.0
2014-Aug-11 17:31N 43°32' E 007°03'0 0.0
2014-Aug-11 16:31N 43°32' E 007°03'0 0.0
2014-Aug-11 15:25N 43°32' E 007°03'0 0.0
2014-Aug-11 14:19N 43°32' E 007°03'0 0.0
2014-Aug-11 13:25N 43°32' E 007°03'0 0.0
2014-Aug-11 11:32N 43°32' E 007°03'0 0.0
2014-Aug-11 10:31N 43°32' E 007°03'0 0.0
2014-Aug-11 09:33N 43°32' E 007°03'0 0.0
2014-Aug-11 08:31N 43°31' E 007°03'0 0.0
2014-Aug-11 07:33N 43°31' E 007°03'0 0.0
2014-Aug-11 06:33N 43°31' E 007°03'1 1.5
2014-Aug-11 05:33N 43°33' E 007°05'1 1.4
2014-Aug-11 04:31N 43°33' E 007°07'0 0.0
2014-Aug-11 03:31N 43°33' E 007°07'0 0.0
2014-Aug-11 02:31N 43°33' E 007°07'0 0.0
2014-Aug-11 01:31N 43°33' E 007°07'0 0.0
2014-Aug-11 00:31N 43°33' E 007°07'0 0.0
2014-Aug-10 23:25N 43°33' E 007°07'0 0.0
2014-Aug-10 22:31N 43°33' E 007°07'0 0.0
2014-Aug-10 21:31N 43°33' E 007°07'0 0.0
2014-Aug-10 20:31N 43°33' E 007°07'0 0.0
2014-Aug-10 19:31N 43°33' E 007°07'0 0.0
2014-Aug-10 18:31N 43°33' E 007°07'0 0.0
2014-Aug-10 17:31N 43°33' E 007°07'0 0.0
2014-Aug-10 16:31N 43°33' E 007°07'0 0.0
2014-Aug-10 15:31N 43°33' E 007°07'  

Dump ship's entire track history